sensor_id;sensor_type;location;lat;lon;timestamp;temperature;humidity
18506;DHT22;9382;53.242;10.438;2023-02-21T00:00:06;9.20;99.90
18506;DHT22;9382;53.242;10.438;2023-02-21T00:02:51;9.20;99.90
18506;DHT22;9382;53.242;10.438;2023-02-21T00:05:35;9.20;99.90
18506;DHT22;9382;53.242;10.438;2023-02-21T00:08:19;9.20;99.90
18506;DHT22;9382;53.242;10.438;2023-02-21T00:11:04;9.20;99.90
18506;DHT22;9382;53.242;10.438;2023-02-21T00:13:49;9.20;99.90
18506;DHT22;9382;53.242;10.438;2023-02-21T00:16:33;9.20;99.90
18506;DHT22;9382;53.242;10.438;2023-02-21T00:19:17;9.20;99.90
18506;DHT22;9382;53.242;10.438;2023-02-21T00:22:02;9.20;99.90
18506;DHT22;9382;53.242;10.438;2023-02-21T00:24:46;9.20;99.90
18506;DHT22;9382;53.242;10.438;2023-02-21T00:27:30;9.20;99.90
18506;DHT22;9382;53.242;10.438;2023-02-21T00:30:15;9.20;99.90
18506;DHT22;9382;53.242;10.438;2023-02-21T00:33:00;9.20;99.90
18506;DHT22;9382;53.242;10.438;2023-02-21T00:35:44;9.20;99.90
18506;DHT22;9382;53.242;10.438;2023-02-21T00:38:28;9.20;99.90
18506;DHT22;9382;53.242;10.438;2023-02-21T00:41:12;9.20;99.90
18506;DHT22;9382;53.242;10.438;2023-02-21T00:43:56;9.20;99.90
18506;DHT22;9382;53.242;10.438;2023-02-21T00:46:42;9.20;99.90
18506;DHT22;9382;53.242;10.438;2023-02-21T00:49:27;9.20;99.90
18506;DHT22;9382;53.242;10.438;2023-02-21T00:52:11;9.20;99.90
18506;DHT22;9382;53.242;10.438;2023-02-21T00:54:55;9.20;99.90
18506;DHT22;9382;53.242;10.438;2023-02-21T00:57:39;9.20;99.90
18506;DHT22;9382;53.242;10.438;2023-02-21T01:00:24;9.20;99.90
18506;DHT22;9382;53.242;10.438;2023-02-21T01:03:10;9.20;99.90
18506;DHT22;9382;53.242;10.438;2023-02-21T01:05:54;9.20;99.90
18506;DHT22;9382;53.242;10.438;2023-02-21T01:08:40;9.20;99.90
18506;DHT22;9382;53.242;10.438;2023-02-21T01:11:25;9.20;99.90
18506;DHT22;9382;53.242;10.438;2023-02-21T01:14:09;9.20;99.90
18506;DHT22;9382;53.242;10.438;2023-02-21T01:16:54;9.20;99.90
18506;DHT22;9382;53.242;10.438;2023-02-21T01:19:40;9.20;99.90
18506;DHT22;9382;53.242;10.438;2023-02-21T01:22:24;9.20;99.90
18506;DHT22;9382;53.242;10.438;2023-02-21T01:25:08;9.30;99.90
18506;DHT22;9382;53.242;10.438;2023-02-21T01:27:53;9.30;99.90
18506;DHT22;9382;53.242;10.438;2023-02-21T01:30:38;9.30;99.90
18506;DHT22;9382;53.242;10.438;2023-02-21T01:33:22;9.20;99.90
18506;DHT22;9382;53.242;10.438;2023-02-21T01:36:09;9.20;99.90
18506;DHT22;9382;53.242;10.438;2023-02-21T01:38:53;9.20;99.90
18506;DHT22;9382;53.242;10.438;2023-02-21T01:41:37;9.20;99.90
18506;DHT22;9382;53.242;10.438;2023-02-21T01:44:33;9.20;99.90
18506;DHT22;9382;53.242;10.438;2023-02-21T01:47:18;9.30;99.90
18506;DHT22;9382;53.242;10.438;2023-02-21T01:50:08;9.30;99.90
18506;DHT22;9382;53.242;10.438;2023-02-21T01:52:55;9.30;99.90
18506;DHT22;9382;53.242;10.438;2023-02-21T01:55:41;9.20;99.90
18506;DHT22;9382;53.242;10.438;2023-02-21T01:58:26;9.20;99.90
18506;DHT22;9382;53.242;10.438;2023-02-21T02:01:19;9.20;99.90
18506;DHT22;9382;53.242;10.438;2023-02-21T02:04:03;9.20;99.90
18506;DHT22;9382;53.242;10.438;2023-02-21T02:06:48;9.20;99.90
18506;DHT22;9382;53.242;10.438;2023-02-21T02:09:34;9.20;99.90
18506;DHT22;9382;53.242;10.438;2023-02-21T02:12:33;9.20;99.90
18506;DHT22;9382;53.242;10.438;2023-02-21T02:15:17;9.20;99.90
18506;DHT22;9382;53.242;10.438;2023-02-21T02:17:56;9.20;99.90
18506;DHT22;9382;53.242;10.438;2023-02-21T02:23:38;9.10;99.90
18506;DHT22;9382;53.242;10.438;2023-02-21T02:29:38;9.20;99.90
18506;DHT22;9382;53.242;10.438;2023-02-21T02:32:35;9.20;99.90
18506;DHT22;9382;53.242;10.438;2023-02-21T02:35:07;9.20;99.90
18506;DHT22;9382;53.242;10.438;2023-02-21T02:37:37;9.20;99.90
18506;DHT22;9382;53.242;10.438;2023-02-21T02:40:14;9.20;99.90
18506;DHT22;9382;53.242;10.438;2023-02-21T02:42:51;9.20;99.90
18506;DHT22;9382;53.242;10.438;2023-02-21T02:45:25;9.10;99.90
18506;DHT22;9382;53.242;10.438;2023-02-21T02:47:58;9.10;99.90
18506;DHT22;9382;53.242;10.438;2023-02-21T02:50:28;9.10;99.90
18506;DHT22;9382;53.242;10.438;2023-02-21T02:53:00;9.20;99.90
18506;DHT22;9382;53.242;10.438;2023-02-21T02:55:38;9.10;99.90
18506;DHT22;9382;53.242;10.438;2023-02-21T02:58:08;9.10;99.90
18506;DHT22;9382;53.242;10.438;2023-02-21T03:00:37;9.10;99.90
18506;DHT22;9382;53.242;10.438;2023-02-21T03:03:23;9.10;99.90
18506;DHT22;9382;53.242;10.438;2023-02-21T03:06:08;9.10;99.90
18506;DHT22;9382;53.242;10.438;2023-02-21T03:08:43;9.10;99.90
18506;DHT22;9382;53.242;10.438;2023-02-21T03:11:16;9.10;99.90
18506;DHT22;9382;53.242;10.438;2023-02-21T03:13:47;9.10;99.90
18506;DHT22;9382;53.242;10.438;2023-02-21T03:16:19;9.10;99.90
18506;DHT22;9382;53.242;10.438;2023-02-21T03:18:51;9.10;99.90
18506;DHT22;9382;53.242;10.438;2023-02-21T03:21:24;9.10;99.90
18506;DHT22;9382;53.242;10.438;2023-02-21T03:23:53;9.10;99.90
18506;DHT22;9382;53.242;10.438;2023-02-21T03:26:23;9.10;99.90
18506;DHT22;9382;53.242;10.438;2023-02-21T03:28:52;9.10;99.90
18506;DHT22;9382;53.242;10.438;2023-02-21T03:31:25;9.10;99.90
18506;DHT22;9382;53.242;10.438;2023-02-21T03:33:53;9.10;99.90
18506;DHT22;9382;53.242;10.438;2023-02-21T03:36:22;9.10;99.90
18506;DHT22;9382;53.242;10.438;2023-02-21T03:38:49;9.20;99.90
18506;DHT22;9382;53.242;10.438;2023-02-21T03:41:16;9.10;99.90
18506;DHT22;9382;53.242;10.438;2023-02-21T03:43:42;9.10;99.90
18506;DHT22;9382;53.242;10.438;2023-02-21T03:46:09;9.10;99.90
18506;DHT22;9382;53.242;10.438;2023-02-21T03:48:36;9.10;99.90
18506;DHT22;9382;53.242;10.438;2023-02-21T03:51:03;9.20;99.90
18506;DHT22;9382;53.242;10.438;2023-02-21T03:53:31;9.10;99.90
18506;DHT22;9382;53.242;10.438;2023-02-21T03:55:58;9.20;99.90
18506;DHT22;9382;53.242;10.438;2023-02-21T03:58:25;9.10;99.90
18506;DHT22;9382;53.242;10.438;2023-02-21T04:00:52;9.10;99.90
18506;DHT22;9382;53.242;10.438;2023-02-21T04:03:19;9.10;99.90
18506;DHT22;9382;53.242;10.438;2023-02-21T04:05:46;9.10;99.90
18506;DHT22;9382;53.242;10.438;2023-02-21T04:08:13;9.10;99.90
18506;DHT22;9382;53.242;10.438;2023-02-21T04:10:41;9.10;99.90
18506;DHT22;9382;53.242;10.438;2023-02-21T04:13:08;9.10;99.90
18506;DHT22;9382;53.242;10.438;2023-02-21T04:15:35;9.10;99.90
18506;DHT22;9382;53.242;10.438;2023-02-21T04:18:02;9.10;99.90
18506;DHT22;9382;53.242;10.438;2023-02-21T04:20:28;9.10;99.90
18506;DHT22;9382;53.242;10.438;2023-02-21T04:22:55;9.10;99.90
18506;DHT22;9382;53.242;10.438;2023-02-21T04:25:22;9.00;99.90
18506;DHT22;9382;53.242;10.438;2023-02-21T04:27:50;9.10;99.90
18506;DHT22;9382;53.242;10.438;2023-02-21T04:30:17;9.10;99.90
18506;DHT22;9382;53.242;10.438;2023-02-21T04:32:44;9.00;99.90
18506;DHT22;9382;53.242;10.438;2023-02-21T04:35:11;9.00;99.90
18506;DHT22;9382;53.242;10.438;2023-02-21T04:37:37;9.00;99.90
18506;DHT22;9382;53.242;10.438;2023-02-21T04:40:05;9.00;99.90
18506;DHT22;9382;53.242;10.438;2023-02-21T04:42:33;9.00;99.90
18506;DHT22;9382;53.242;10.438;2023-02-21T04:45:01;9.00;99.90
18506;DHT22;9382;53.242;10.438;2023-02-21T04:47:28;9.00;99.90
18506;DHT22;9382;53.242;10.438;2023-02-21T04:49:54;8.90;99.90
18506;DHT22;9382;53.242;10.438;2023-02-21T04:52:21;8.90;99.90
18506;DHT22;9382;53.242;10.438;2023-02-21T04:54:48;8.90;99.90
18506;DHT22;9382;53.242;10.438;2023-02-21T04:57:15;8.90;99.90
18506;DHT22;9382;53.242;10.438;2023-02-21T04:59:42;8.90;99.90
18506;DHT22;9382;53.242;10.438;2023-02-21T05:02:10;8.90;99.90
18506;DHT22;9382;53.242;10.438;2023-02-21T05:04:37;8.90;99.90
18506;DHT22;9382;53.242;10.438;2023-02-21T05:07:04;8.80;99.90
18506;DHT22;9382;53.242;10.438;2023-02-21T05:09:31;8.90;99.90
18506;DHT22;9382;53.242;10.438;2023-02-21T05:11:57;8.80;99.90
18506;DHT22;9382;53.242;10.438;2023-02-21T05:14:24;8.90;99.90
18506;DHT22;9382;53.242;10.438;2023-02-21T05:16:51;8.90;99.90
18506;DHT22;9382;53.242;10.438;2023-02-21T05:19:20;8.90;99.90
18506;DHT22;9382;53.242;10.438;2023-02-21T05:21:52;8.90;99.90
18506;DHT22;9382;53.242;10.438;2023-02-21T05:24:19;8.90;99.90
18506;DHT22;9382;53.242;10.438;2023-02-21T05:26:46;8.90;99.90
18506;DHT22;9382;53.242;10.438;2023-02-21T05:29:13;8.90;99.90
18506;DHT22;9382;53.242;10.438;2023-02-21T05:31:39;8.90;99.90
18506;DHT22;9382;53.242;10.438;2023-02-21T05:34:06;8.90;99.90
18506;DHT22;9382;53.242;10.438;2023-02-21T05:36:34;8.80;99.90
18506;DHT22;9382;53.242;10.438;2023-02-21T05:39:01;8.80;99.90
18506;DHT22;9382;53.242;10.438;2023-02-21T05:41:28;8.80;99.90
18506;DHT22;9382;53.242;10.438;2023-02-21T05:43:55;8.80;99.90
18506;DHT22;9382;53.242;10.438;2023-02-21T05:46:23;8.80;99.90
18506;DHT22;9382;53.242;10.438;2023-02-21T05:48:51;8.80;99.90
18506;DHT22;9382;53.242;10.438;2023-02-21T05:51:18;8.80;99.90
18506;DHT22;9382;53.242;10.438;2023-02-21T05:53:46;8.80;99.90
18506;DHT22;9382;53.242;10.438;2023-02-21T05:56:14;8.80;99.90
18506;DHT22;9382;53.242;10.438;2023-02-21T05:58:41;8.80;99.90
18506;DHT22;9382;53.242;10.438;2023-02-21T06:01:08;8.80;99.90
18506;DHT22;9382;53.242;10.438;2023-02-21T06:03:34;8.80;99.90
18506;DHT22;9382;53.242;10.438;2023-02-21T06:06:01;8.80;99.90
18506;DHT22;9382;53.242;10.438;2023-02-21T06:08:29;8.80;99.90
18506;DHT22;9382;53.242;10.438;2023-02-21T06:10:57;8.80;99.90
18506;DHT22;9382;53.242;10.438;2023-02-21T06:13:23;8.80;99.90
18506;DHT22;9382;53.242;10.438;2023-02-21T06:15:50;8.80;99.90
18506;DHT22;9382;53.242;10.438;2023-02-21T06:18:17;8.80;99.90
18506;DHT22;9382;53.242;10.438;2023-02-21T06:20:43;8.80;99.90
18506;DHT22;9382;53.242;10.438;2023-02-21T06:23:10;8.80;99.90
18506;DHT22;9382;53.242;10.438;2023-02-21T06:25:37;8.80;99.90
18506;DHT22;9382;53.242;10.438;2023-02-21T06:28:05;8.80;99.90
18506;DHT22;9382;53.242;10.438;2023-02-21T06:30:32;8.70;99.90
18506;DHT22;9382;53.242;10.438;2023-02-21T06:32:59;8.80;99.90
18506;DHT22;9382;53.242;10.438;2023-02-21T06:35:26;8.80;99.90
18506;DHT22;9382;53.242;10.438;2023-02-21T06:37:52;8.80;99.90
18506;DHT22;9382;53.242;10.438;2023-02-21T06:40:19;8.80;99.90
18506;DHT22;9382;53.242;10.438;2023-02-21T06:42:46;8.80;99.90
18506;DHT22;9382;53.242;10.438;2023-02-21T06:45:14;8.80;99.90
18506;DHT22;9382;53.242;10.438;2023-02-21T06:47:41;8.80;99.90
18506;DHT22;9382;53.242;10.438;2023-02-21T06:50:08;8.80;99.90
18506;DHT22;9382;53.242;10.438;2023-02-21T06:52:34;8.80;99.90
18506;DHT22;9382;53.242;10.438;2023-02-21T06:55:01;8.80;99.90
18506;DHT22;9382;53.242;10.438;2023-02-21T06:57:28;8.80;99.90
18506;DHT22;9382;53.242;10.438;2023-02-21T06:59:55;8.80;99.90
18506;DHT22;9382;53.242;10.438;2023-02-21T07:02:23;8.80;99.90
18506;DHT22;9382;53.242;10.438;2023-02-21T07:04:50;8.70;99.90
18506;DHT22;9382;53.242;10.438;2023-02-21T07:07:17;8.70;99.90
18506;DHT22;9382;53.242;10.438;2023-02-21T07:09:44;8.70;99.90
18506;DHT22;9382;53.242;10.438;2023-02-21T07:12:10;8.80;99.90
18506;DHT22;9382;53.242;10.438;2023-02-21T07:14:37;8.80;99.90
18506;DHT22;9382;53.242;10.438;2023-02-21T07:17:04;8.80;99.90
18506;DHT22;9382;53.242;10.438;2023-02-21T07:19:32;8.80;99.90
18506;DHT22;9382;53.242;10.438;2023-02-21T07:21:59;8.80;99.90
18506;DHT22;9382;53.242;10.438;2023-02-21T07:24:25;8.80;99.90
18506;DHT22;9382;53.242;10.438;2023-02-21T07:26:52;8.80;99.90
18506;DHT22;9382;53.242;10.438;2023-02-21T07:29:19;8.80;99.90
18506;DHT22;9382;53.242;10.438;2023-02-21T07:31:45;8.80;99.90
18506;DHT22;9382;53.242;10.438;2023-02-21T07:34:12;8.80;99.90
18506;DHT22;9382;53.242;10.438;2023-02-21T07:36:41;8.80;99.90
18506;DHT22;9382;53.242;10.438;2023-02-21T07:39:08;8.90;99.90
18506;DHT22;9382;53.242;10.438;2023-02-21T07:41:34;8.90;99.90
18506;DHT22;9382;53.242;10.438;2023-02-21T07:44:01;8.90;99.90
18506;DHT22;9382;53.242;10.438;2023-02-21T07:46:28;8.90;99.90
18506;DHT22;9382;53.242;10.438;2023-02-21T07:48:55;8.90;99.90
18506;DHT22;9382;53.242;10.438;2023-02-21T07:51:22;8.90;99.90
18506;DHT22;9382;53.242;10.438;2023-02-21T07:53:53;9.00;99.90
18506;DHT22;9382;53.242;10.438;2023-02-21T07:56:20;9.00;99.90
18506;DHT22;9382;53.242;10.438;2023-02-21T07:58:47;8.90;99.90
18506;DHT22;9382;53.242;10.438;2023-02-21T08:01:14;9.00;99.90
18506;DHT22;9382;53.242;10.438;2023-02-21T08:03:41;9.00;99.90
18506;DHT22;9382;53.242;10.438;2023-02-21T08:06:08;9.00;99.90
18506;DHT22;9382;53.242;10.438;2023-02-21T08:08:35;9.00;99.90
18506;DHT22;9382;53.242;10.438;2023-02-21T08:11:03;9.00;99.90
18506;DHT22;9382;53.242;10.438;2023-02-21T08:13:30;9.10;99.90
18506;DHT22;9382;53.242;10.438;2023-02-21T08:15:57;9.10;99.90
18506;DHT22;9382;53.242;10.438;2023-02-21T08:18:24;9.10;99.90
18506;DHT22;9382;53.242;10.438;2023-02-21T08:20:50;9.10;99.90
18506;DHT22;9382;53.242;10.438;2023-02-21T08:23:18;9.20;99.90
18506;DHT22;9382;53.242;10.438;2023-02-21T08:25:45;9.20;99.90
18506;DHT22;9382;53.242;10.438;2023-02-21T08:28:15;9.30;99.90
18506;DHT22;9382;53.242;10.438;2023-02-21T08:30:42;9.40;99.90
18506;DHT22;9382;53.242;10.438;2023-02-21T08:33:09;9.40;99.90
18506;DHT22;9382;53.242;10.438;2023-02-21T08:35:35;9.50;99.90
18506;DHT22;9382;53.242;10.438;2023-02-21T08:38:03;9.50;99.90
18506;DHT22;9382;53.242;10.438;2023-02-21T08:40:30;9.60;99.90
18506;DHT22;9382;53.242;10.438;2023-02-21T08:42:58;9.80;99.90
18506;DHT22;9382;53.242;10.438;2023-02-21T08:45:27;9.80;99.90
18506;DHT22;9382;53.242;10.438;2023-02-21T08:47:55;9.90;99.90
18506;DHT22;9382;53.242;10.438;2023-02-21T08:50:23;9.90;99.90
18506;DHT22;9382;53.242;10.438;2023-02-21T08:52:51;10.00;99.90
18506;DHT22;9382;53.242;10.438;2023-02-21T08:55:19;10.00;99.90
18506;DHT22;9382;53.242;10.438;2023-02-21T08:57:46;10.10;99.90
18506;DHT22;9382;53.242;10.438;2023-02-21T09:00:14;10.10;99.90
18506;DHT22;9382;53.242;10.438;2023-02-21T09:02:43;10.10;99.90
18506;DHT22;9382;53.242;10.438;2023-02-21T09:05:12;10.00;99.90
18506;DHT22;9382;53.242;10.438;2023-02-21T09:07:39;10.00;99.90
18506;DHT22;9382;53.242;10.438;2023-02-21T09:10:07;10.00;99.90
18506;DHT22;9382;53.242;10.438;2023-02-21T09:12:35;10.10;99.90
18506;DHT22;9382;53.242;10.438;2023-02-21T09:15:02;10.10;99.90
18506;DHT22;9382;53.242;10.438;2023-02-21T09:17:29;10.00;99.90
18506;DHT22;9382;53.242;10.438;2023-02-21T09:19:59;10.10;99.90
18506;DHT22;9382;53.242;10.438;2023-02-21T09:22:27;10.10;99.90
18506;DHT22;9382;53.242;10.438;2023-02-21T09:24:56;10.20;99.90
18506;DHT22;9382;53.242;10.438;2023-02-21T09:27:23;10.30;99.90
18506;DHT22;9382;53.242;10.438;2023-02-21T09:30:02;10.20;99.90
18506;DHT22;9382;53.242;10.438;2023-02-21T09:32:28;10.30;99.90
18506;DHT22;9382;53.242;10.438;2023-02-21T09:34:56;10.50;99.90
18506;DHT22;9382;53.242;10.438;2023-02-21T09:37:25;10.60;99.90
18506;DHT22;9382;53.242;10.438;2023-02-21T09:39:51;10.60;99.90
18506;DHT22;9382;53.242;10.438;2023-02-21T09:42:21;10.50;99.90
18506;DHT22;9382;53.242;10.438;2023-02-21T09:44:48;10.50;99.90
18506;DHT22;9382;53.242;10.438;2023-02-21T09:47:22;10.50;99.90
18506;DHT22;9382;53.242;10.438;2023-02-21T09:49:58;10.50;99.90
18506;DHT22;9382;53.242;10.438;2023-02-21T09:52:31;10.50;99.90
18506;DHT22;9382;53.242;10.438;2023-02-21T09:55:01;10.50;99.90
18506;DHT22;9382;53.242;10.438;2023-02-21T09:57:29;10.40;99.90
18506;DHT22;9382;53.242;10.438;2023-02-21T09:59:55;10.40;99.90
18506;DHT22;9382;53.242;10.438;2023-02-21T10:02:36;10.30;99.90
18506;DHT22;9382;53.242;10.438;2023-02-21T10:05:14;10.30;99.90
18506;DHT22;9382;53.242;10.438;2023-02-21T10:07:49;10.20;99.90
18506;DHT22;9382;53.242;10.438;2023-02-21T10:10:24;10.20;99.90
18506;DHT22;9382;53.242;10.438;2023-02-21T10:12:58;10.10;99.90
18506;DHT22;9382;53.242;10.438;2023-02-21T10:15:39;10.10;99.90
18506;DHT22;9382;53.242;10.438;2023-02-21T10:18:18;10.00;99.90
18506;DHT22;9382;53.242;10.438;2023-02-21T10:20:50;9.90;99.90
18506;DHT22;9382;53.242;10.438;2023-02-21T10:23:22;9.90;99.90
18506;DHT22;9382;53.242;10.438;2023-02-21T10:25:54;9.90;99.90
18506;DHT22;9382;53.242;10.438;2023-02-21T10:28:24;9.90;99.90
18506;DHT22;9382;53.242;10.438;2023-02-21T10:30:53;9.90;99.90
18506;DHT22;9382;53.242;10.438;2023-02-21T10:33:21;9.80;99.90
18506;DHT22;9382;53.242;10.438;2023-02-21T10:35:48;9.80;99.90
18506;DHT22;9382;53.242;10.438;2023-02-21T10:38:18;9.80;99.90
18506;DHT22;9382;53.242;10.438;2023-02-21T10:40:50;9.90;99.90
18506;DHT22;9382;53.242;10.438;2023-02-21T10:43:21;9.90;99.90
18506;DHT22;9382;53.242;10.438;2023-02-21T10:45:56;10.00;99.90
18506;DHT22;9382;53.242;10.438;2023-02-21T10:48:25;10.00;99.90
18506;DHT22;9382;53.242;10.438;2023-02-21T10:51:05;10.00;99.90
18506;DHT22;9382;53.242;10.438;2023-02-21T10:53:33;10.10;99.90
18506;DHT22;9382;53.242;10.438;2023-02-21T10:56:19;10.20;99.90
18506;DHT22;9382;53.242;10.438;2023-02-21T10:58:48;10.20;99.90
18506;DHT22;9382;53.242;10.438;2023-02-21T11:01:17;10.30;99.90
18506;DHT22;9382;53.242;10.438;2023-02-21T11:03:47;10.30;99.90
18506;DHT22;9382;53.242;10.438;2023-02-21T11:06:31;10.30;99.90
18506;DHT22;9382;53.242;10.438;2023-02-21T11:08:59;10.30;99.90
18506;DHT22;9382;53.242;10.438;2023-02-21T11:11:35;10.30;99.90
18506;DHT22;9382;53.242;10.438;2023-02-21T11:14:19;10.30;99.90
18506;DHT22;9382;53.242;10.438;2023-02-21T11:17:08;10.30;99.90
18506;DHT22;9382;53.242;10.438;2023-02-21T11:19:44;10.40;99.90
18506;DHT22;9382;53.242;10.438;2023-02-21T11:22:11;10.40;99.90
18506;DHT22;9382;53.242;10.438;2023-02-21T11:25:00;10.30;99.90
18506;DHT22;9382;53.242;10.438;2023-02-21T11:27:32;10.40;99.90
18506;DHT22;9382;53.242;10.438;2023-02-21T11:30:02;10.40;99.90
18506;DHT22;9382;53.242;10.438;2023-02-21T11:32:32;10.40;99.90
18506;DHT22;9382;53.242;10.438;2023-02-21T11:35:06;10.50;99.90
18506;DHT22;9382;53.242;10.438;2023-02-21T11:37:34;10.40;99.90
18506;DHT22;9382;53.242;10.438;2023-02-21T11:40:21;10.40;99.90
18506;DHT22;9382;53.242;10.438;2023-02-21T11:42:50;10.30;99.90
18506;DHT22;9382;53.242;10.438;2023-02-21T11:45:20;10.30;99.90
18506;DHT22;9382;53.242;10.438;2023-02-21T11:47:55;10.30;99.90
18506;DHT22;9382;53.242;10.438;2023-02-21T11:50:25;10.40;99.90
18506;DHT22;9382;53.242;10.438;2023-02-21T11:53:02;10.40;99.90
18506;DHT22;9382;53.242;10.438;2023-02-21T11:55:31;10.30;99.90
18506;DHT22;9382;53.242;10.438;2023-02-21T11:58:16;10.40;99.90
18506;DHT22;9382;53.242;10.438;2023-02-21T12:00:50;10.60;99.90
18506;DHT22;9382;53.242;10.438;2023-02-21T12:06:37;10.50;99.90
18506;DHT22;9382;53.242;10.438;2023-02-21T12:09:11;10.60;99.90
18506;DHT22;9382;53.242;10.438;2023-02-21T12:11:50;10.60;99.90
18506;DHT22;9382;53.242;10.438;2023-02-21T12:14:31;10.70;99.90
18506;DHT22;9382;53.242;10.438;2023-02-21T12:17:11;10.70;99.90
18506;DHT22;9382;53.242;10.438;2023-02-21T12:19:50;10.70;99.90
18506;DHT22;9382;53.242;10.438;2023-02-21T12:22:31;10.90;99.90
18506;DHT22;9382;53.242;10.438;2023-02-21T12:25:10;11.20;99.90
18506;DHT22;9382;53.242;10.438;2023-02-21T12:27:46;11.40;99.90
18506;DHT22;9382;53.242;10.438;2023-02-21T12:30:33;11.60;99.90
18506;DHT22;9382;53.242;10.438;2023-02-21T12:33:11;11.60;99.90
18506;DHT22;9382;53.242;10.438;2023-02-21T12:36:10;11.70;99.90
18506;DHT22;9382;53.242;10.438;2023-02-21T12:39:00;11.60;99.90
18506;DHT22;9382;53.242;10.438;2023-02-21T12:41:51;11.50;99.90
18506;DHT22;9382;53.242;10.438;2023-02-21T12:44:22;11.50;99.90
18506;DHT22;9382;53.242;10.438;2023-02-21T12:46:54;11.50;99.90
18506;DHT22;9382;53.242;10.438;2023-02-21T12:49:26;11.40;99.90
18506;DHT22;9382;53.242;10.438;2023-02-21T12:51:57;11.30;99.90
18506;DHT22;9382;53.242;10.438;2023-02-21T12:54:35;11.40;99.90
18506;DHT22;9382;53.242;10.438;2023-02-21T12:57:08;11.40;99.90
18506;DHT22;9382;53.242;10.438;2023-02-21T12:59:46;11.30;99.90
18506;DHT22;9382;53.242;10.438;2023-02-21T13:02:22;11.20;99.90
18506;DHT22;9382;53.242;10.438;2023-02-21T13:04:54;11.30;99.90
18506;DHT22;9382;53.242;10.438;2023-02-21T13:07:25;11.20;99.90
18506;DHT22;9382;53.242;10.438;2023-02-21T13:10:00;11.10;99.90
18506;DHT22;9382;53.242;10.438;2023-02-21T13:12:32;10.90;99.90
18506;DHT22;9382;53.242;10.438;2023-02-21T13:15:11;10.90;99.90
18506;DHT22;9382;53.242;10.438;2023-02-21T13:17:42;11.00;99.90
18506;DHT22;9382;53.242;10.438;2023-02-21T13:20:14;11.00;99.90
18506;DHT22;9382;53.242;10.438;2023-02-21T13:22:44;11.00;99.90
18506;DHT22;9382;53.242;10.438;2023-02-21T13:25:40;10.90;99.90
18506;DHT22;9382;53.242;10.438;2023-02-21T13:28:13;11.00;99.90
18506;DHT22;9382;53.242;10.438;2023-02-21T13:30:44;11.00;99.90
18506;DHT22;9382;53.242;10.438;2023-02-21T13:33:24;11.00;99.90
18506;DHT22;9382;53.242;10.438;2023-02-21T13:35:52;11.10;99.90
18506;DHT22;9382;53.242;10.438;2023-02-21T13:38:21;11.20;99.90
18506;DHT22;9382;53.242;10.438;2023-02-21T13:40:51;11.30;99.90
18506;DHT22;9382;53.242;10.438;2023-02-21T13:43:23;11.30;99.90
18506;DHT22;9382;53.242;10.438;2023-02-21T13:45:50;11.30;99.90
18506;DHT22;9382;53.242;10.438;2023-02-21T13:48:24;11.30;99.90
18506;DHT22;9382;53.242;10.438;2023-02-21T13:50:53;11.30;99.90
18506;DHT22;9382;53.242;10.438;2023-02-21T13:53:23;11.30;99.90
18506;DHT22;9382;53.242;10.438;2023-02-21T13:56:14;11.40;99.90
18506;DHT22;9382;53.242;10.438;2023-02-21T13:58:43;11.40;99.90
18506;DHT22;9382;53.242;10.438;2023-02-21T14:01:19;11.50;99.90
18506;DHT22;9382;53.242;10.438;2023-02-21T14:03:50;11.60;99.90
18506;DHT22;9382;53.242;10.438;2023-02-21T14:06:36;11.60;99.90
18506;DHT22;9382;53.242;10.438;2023-02-21T14:09:11;11.50;99.90
18506;DHT22;9382;53.242;10.438;2023-02-21T14:11:49;11.30;99.90
18506;DHT22;9382;53.242;10.438;2023-02-21T14:14:24;11.20;99.90
18506;DHT22;9382;53.242;10.438;2023-02-21T14:16:57;11.20;99.90
18506;DHT22;9382;53.242;10.438;2023-02-21T14:19:31;11.10;99.90
18506;DHT22;9382;53.242;10.438;2023-02-21T14:22:02;11.10;99.90
18506;DHT22;9382;53.242;10.438;2023-02-21T14:24:33;11.10;99.90
18506;DHT22;9382;53.242;10.438;2023-02-21T14:27:03;11.20;99.90
18506;DHT22;9382;53.242;10.438;2023-02-21T14:29:34;11.30;99.90
18506;DHT22;9382;53.242;10.438;2023-02-21T14:32:23;11.50;99.90
18506;DHT22;9382;53.242;10.438;2023-02-21T14:34:55;11.60;99.90
18506;DHT22;9382;53.242;10.438;2023-02-21T14:37:25;11.50;99.90
18506;DHT22;9382;53.242;10.438;2023-02-21T14:39:57;11.40;99.90
18506;DHT22;9382;53.242;10.438;2023-02-21T14:42:36;11.30;99.90
18506;DHT22;9382;53.242;10.438;2023-02-21T14:45:28;11.10;99.90
18506;DHT22;9382;53.242;10.438;2023-02-21T14:48:18;10.90;99.90
18506;DHT22;9382;53.242;10.438;2023-02-21T14:54:11;10.70;99.90
18506;DHT22;9382;53.242;10.438;2023-02-21T14:56:47;10.50;99.90
18506;DHT22;9382;53.242;10.438;2023-02-21T14:59:48;10.40;99.90
18506;DHT22;9382;53.242;10.438;2023-02-21T15:02:24;10.30;99.90
18506;DHT22;9382;53.242;10.438;2023-02-21T15:04:58;10.30;99.90
18506;DHT22;9382;53.242;10.438;2023-02-21T15:07:32;10.20;99.90
18506;DHT22;9382;53.242;10.438;2023-02-21T15:10:14;10.10;99.90
18506;DHT22;9382;53.242;10.438;2023-02-21T15:12:43;10.10;99.90
18506;DHT22;9382;53.242;10.438;2023-02-21T15:15:15;10.10;99.90
18506;DHT22;9382;53.242;10.438;2023-02-21T15:17:43;10.00;99.90
18506;DHT22;9382;53.242;10.438;2023-02-21T15:20:14;10.00;99.90
18506;DHT22;9382;53.242;10.438;2023-02-21T15:22:42;9.90;99.90
18506;DHT22;9382;53.242;10.438;2023-02-21T15:25:17;9.90;99.90
18506;DHT22;9382;53.242;10.438;2023-02-21T15:28:00;9.90;99.90
18506;DHT22;9382;53.242;10.438;2023-02-21T15:30:31;9.90;99.90
18506;DHT22;9382;53.242;10.438;2023-02-21T15:33:04;9.90;99.90
18506;DHT22;9382;53.242;10.438;2023-02-21T15:35:33;9.80;99.90
18506;DHT22;9382;53.242;10.438;2023-02-21T15:38:06;9.80;99.90
18506;DHT22;9382;53.242;10.438;2023-02-21T15:40:35;9.80;99.90
18506;DHT22;9382;53.242;10.438;2023-02-21T15:43:03;9.70;99.90
18506;DHT22;9382;53.242;10.438;2023-02-21T15:45:33;9.70;99.90
18506;DHT22;9382;53.242;10.438;2023-02-21T15:48:03;9.60;99.90
18506;DHT22;9382;53.242;10.438;2023-02-21T15:50:33;9.60;99.90
18506;DHT22;9382;53.242;10.438;2023-02-21T15:53:14;9.60;99.90
18506;DHT22;9382;53.242;10.438;2023-02-21T15:55:42;9.60;99.90
18506;DHT22;9382;53.242;10.438;2023-02-21T15:58:19;9.60;99.90
18506;DHT22;9382;53.242;10.438;2023-02-21T16:00:46;9.60;99.90
18506;DHT22;9382;53.242;10.438;2023-02-21T16:03:40;9.70;99.90
18506;DHT22;9382;53.242;10.438;2023-02-21T16:06:14;9.60;99.90
18506;DHT22;9382;53.242;10.438;2023-02-21T16:08:53;9.50;99.90
18506;DHT22;9382;53.242;10.438;2023-02-21T16:11:24;9.50;99.90
18506;DHT22;9382;53.242;10.438;2023-02-21T16:13:52;9.40;99.90
18506;DHT22;9382;53.242;10.438;2023-02-21T16:16:19;9.40;99.90
18506;DHT22;9382;53.242;10.438;2023-02-21T16:18:48;9.40;99.90
18506;DHT22;9382;53.242;10.438;2023-02-21T16:21:27;9.40;99.90
18506;DHT22;9382;53.242;10.438;2023-02-21T16:23:55;9.40;99.90
18506;DHT22;9382;53.242;10.438;2023-02-21T16:26:24;9.40;99.90
18506;DHT22;9382;53.242;10.438;2023-02-21T16:28:53;9.40;99.90